Time;durP1;ratioP1;P1;durP2;ratioP2;P2;SDS_P1;SDS_P2;PMS_P1;PMS_P2;Temp;Humidity;BMP_temperature;BMP_pressure;BME280_temperature;BME280_humidity;BME280_pressure;Samples;Min_cycle;Max_cycle;Signal;HPM_P1;HPM_P2
2022/04/22 00:00:52;;;;;;;22.53;11.97;;;4.40;99.90;;;;;;4256975;27;20302;-56
2022/04/22 00:02:54;;;;;;;23.00;13.57;;;4.30;99.90;;;;;;4238973;27;20279;-58
2022/04/22 00:04:55;;;;;;;22.63;14.00;;;4.30;99.90;;;;;;4257866;27;20267;-56
2022/04/22 00:06:57;;;;;;;26.87;15.27;;;4.20;99.90;;;;;;4258890;27;20271;-59
2022/04/22 00:08:58;;;;;;;22.17;13.57;;;4.20;99.90;;;;;;4257655;27;20711;-55
2022/04/22 00:13:19;;;;;;;22.13;13.73;;;4.10;99.90;;;;;;4257517;27;20295;-66
2022/04/22 00:15:21;;;;;;;24.63;14.53;;;4.00;99.90;;;;;;4257377;27;20039;-58
2022/04/22 00:17:23;;;;;;;26.37;15.70;;;4.00;99.90;;;;;;4256850;27;20255;-58
2022/04/22 00:19:24;;;;;;;22.67;13.93;;;3.90;99.90;;;;;;4257946;27;20266;-57
2022/04/22 00:21:26;;;;;;;23.63;12.90;;;3.90;99.90;;;;;;4257228;27;20643;-57
2022/04/22 00:23:27;;;;;;;25.37;14.80;;;3.80;99.90;;;;;;4257610;27;20267;-59
2022/04/22 00:25:29;;;;;;;28.03;14.77;;;3.80;99.90;;;;;;4258217;27;20303;-55
2022/04/22 00:27:30;;;;;;;26.63;15.17;;;3.70;99.90;;;;;;4257299;27;20339;-60
2022/04/22 00:29:31;;;;;;;22.10;13.50;;;3.70;99.90;;;;;;4256932;27;20351;-56
2022/04/22 00:31:32;;;;;;;24.30;14.13;;;3.60;99.90;;;;;;4256796;27;20259;-57
2022/04/22 00:33:33;;;;;;;22.03;14.03;;;3.50;99.90;;;;;;4257844;27;20267;-57
2022/04/22 00:35:34;;;;;;;23.27;14.23;;;3.50;99.90;;;;;;4257451;27;20258;-54
2022/04/22 00:37:35;;;;;;;22.60;13.60;;;3.50;99.90;;;;;;4257688;27;20259;-58
2022/04/22 00:39:37;;;;;;;33.20;15.27;;;3.50;99.90;;;;;;4257214;27;21630;-57
2022/04/22 00:41:39;;;;;;;23.77;14.80;;;3.50;99.90;;;;;;4258374;27;20696;-55
2022/04/22 00:43:45;;;;;;;24.40;14.30;;;3.50;99.90;;;;;;4256199;27;20303;-54
2022/04/22 00:45:47;;;;;;;24.83;15.33;;;3.50;99.90;;;;;;4258290;27;20315;-60
2022/04/22 00:47:48;;;;;;;25.77;14.57;;;3.50;99.90;;;;;;4256175;27;20255;-54
2022/04/22 00:49:50;;;;;;;22.57;13.33;;;3.50;99.90;;;;;;4257294;27;20274;-58
2022/04/22 00:51:51;;;;;;;30.07;15.57;;;3.40;99.90;;;;;;4257352;27;20307;-59
2022/04/22 00:53:53;;;;;;;20.63;12.57;;;3.50;99.90;;;;;;4257263;27;20266;-59
2022/04/22 00:55:55;;;;;;;22.43;13.27;;;3.40;99.90;;;;;;4256407;27;20275;-60
2022/04/22 00:57:58;;;;;;;23.57;13.53;;;3.50;99.90;;;;;;4257022;27;20255;-56
2022/04/22 00:59:59;;;;;;;27.40;14.47;;;3.50;99.90;;;;;;4257180;27;20271;-57
2022/04/22 01:02:00;;;;;;;22.93;14.27;;;3.40;99.90;;;;;;4256015;27;20363;-60
2022/04/22 01:11:01;;;;;;;24.57;14.07;;;3.40;99.90;;;;;;4257120;27;20343;-57
2022/04/22 01:13:02;;;;;;;20.50;13.07;;;3.30;99.90;;;;;;4257935;27;20266;-63
2022/04/22 01:15:04;;;;;;;24.07;14.20;;;3.30;99.90;;;;;;4256745;27;20267;-66
2022/04/22 01:17:05;;;;;;;22.53;13.93;;;3.30;99.90;;;;;;4258071;27;20278;-63
2022/04/22 01:19:07;;;;;;;24.30;13.80;;;3.20;99.90;;;;;;4255821;27;20271;-57
2022/04/22 01:21:08;;;;;;;20.63;13.23;;;3.20;99.90;;;;;;4257863;27;20409;-59
2022/04/22 01:23:09;;;;;;;22.33;13.67;;;3.20;99.90;;;;;;4256165;27;20331;-55
2022/04/22 01:25:10;;;;;;;25.57;13.40;;;3.10;99.90;;;;;;4257176;27;20351;-60
2022/04/22 01:27:13;;;;;;;24.17;15.07;;;3.20;99.90;;;;;;4256464;27;20275;-56
2022/04/22 01:29:15;;;;;;;22.30;13.97;;;3.20;99.90;;;;;;4257105;27;20279;-64
2022/04/22 01:31:16;;;;;;;23.00;13.27;;;3.20;99.90;;;;;;4255233;27;20278;-59
2022/04/22 01:33:17;;;;;;;22.57;13.53;;;3.20;99.90;;;;;;4257166;27;20745;-60
2022/04/22 01:35:19;;;;;;;23.13;13.33;;;3.20;99.90;;;;;;4255964;27;20271;-56
2022/04/22 01:37:20;;;;;;;21.90;13.60;;;3.20;99.90;;;;;;4256740;27;20267;-57
2022/04/22 01:39:23;;;;;;;23.13;13.37;;;3.30;99.90;;;;;;4257202;27;20378;-58
2022/04/22 01:41:25;;;;;;;25.73;14.40;;;3.30;99.90;;;;;;4238779;27;20295;-60
2022/04/22 01:43:26;;;;;;;21.43;12.93;;;3.30;99.90;;;;;;4257120;27;20389;-61
2022/04/22 01:45:27;;;;;;;25.77;12.97;;;3.40;99.90;;;;;;4255592;27;20267;-54
2022/04/22 01:47:29;;;;;;;19.60;12.33;;;3.40;99.90;;;;;;4257073;27;20701;-56
2022/04/22 01:49:31;;;;;;;21.00;12.97;;;3.40;99.90;;;;;;4256651;27;20270;-55
2022/04/22 01:51:32;;;;;;;18.80;11.50;;;3.40;99.90;;;;;;4260259;27;20266;-58
2022/04/22 01:53:33;;;;;;;23.03;13.10;;;3.40;99.90;;;;;;4259768;27;20258;-57
2022/04/22 01:55:34;;;;;;;23.60;14.07;;;3.40;99.90;;;;;;4260430;27;20343;-60
2022/04/22 01:57:36;;;;;;;25.43;14.43;;;3.40;99.90;;;;;;4259023;27;20262;-58
2022/04/22 01:59:37;;;;;;;21.57;13.90;;;3.50;99.90;;;;;;4260668;27;20323;-58
2022/04/22 02:01:38;;;;;;;25.90;14.00;;;3.40;99.90;;;;;;4240491;27;20287;-57
2022/04/22 02:03:39;;;;;;;22.80;13.67;;;3.40;99.90;;;;;;4241903;27;20851;-57
2022/04/22 02:05:41;;;;;;;24.33;14.77;;;3.40;99.90;;;;;;4258640;27;20246;-57
2022/04/22 02:07:42;;;;;;;22.37;13.37;;;3.40;99.90;;;;;;4259751;27;20288;-56
2022/04/22 02:09:43;;;;;;;24.37;13.53;;;3.40;99.90;;;;;;4260114;27;20274;-61
2022/04/22 02:11:44;;;;;;;28.90;14.40;;;3.40;99.90;;;;;;4259115;27;20686;-65
2022/04/22 02:13:46;;;;;;;25.23;14.10;;;3.40;99.90;;;;;;4260348;27;20319;-59
2022/04/22 02:15:47;;;;;;;24.20;13.10;;;3.30;99.90;;;;;;4259220;27;20743;-58
2022/04/22 02:17:48;;;;;;;19.57;12.17;;;3.30;99.90;;;;;;4259518;27;20822;-57
2022/04/22 02:19:49;;;;;;;23.50;13.73;;;3.20;99.90;;;;;;4259164;27;20315;-57
2022/04/22 02:21:50;;;;;;;23.93;13.77;;;3.10;99.90;;;;;;4259809;27;20294;-66
2022/04/22 02:23:51;;;;;;;22.47;13.27;;;3.10;99.90;;;;;;4258715;27;20707;-57
2022/04/22 02:25:52;;;;;;;24.00;13.03;;;3.10;99.90;;;;;;4259880;27;20267;-56
2022/04/22 02:30:15;;;;;;;26.23;14.07;;;3.10;99.90;;;;;;4260987;27;20323;-61
2022/04/22 02:32:16;;;;;;;25.97;14.67;;;3.10;99.90;;;;;;4258992;27;20282;-56
2022/04/22 02:34:18;;;;;;;23.60;13.73;;;3.10;99.90;;;;;;4259602;27;20275;-56
2022/04/22 02:36:20;;;;;;;25.67;13.80;;;3.00;99.90;;;;;;4258316;27;20275;-59
2022/04/22 02:38:21;;;;;;;34.53;14.63;;;2.90;99.90;;;;;;4259498;27;20336;-56
2022/04/22 02:47:20;;;;;;;30.03;15.17;;;2.70;99.90;;;;;;4259618;27;20327;-63
2022/04/22 02:49:22;;;;;;;26.73;15.03;;;2.70;99.90;;;;;;4258472;27;20278;-59
2022/04/22 02:51:23;;;;;;;29.57;15.70;;;2.70;99.90;;;;;;4257722;27;20266;-57
2022/04/22 02:53:25;;;;;;;23.17;14.90;;;2.70;99.90;;;;;;4258206;27;20663;-57
2022/04/22 02:55:26;;;;;;;25.53;15.17;;;2.70;99.90;;;;;;4259650;27;20258;-59
2022/04/22 02:57:27;;;;;;;28.37;15.80;;;2.70;99.90;;;;;;4258995;27;20259;-60
2022/04/22 02:59:30;;;;;;;29.10;16.63;;;2.70;99.90;;;;;;4259139;27;20287;-54
2022/04/22 03:01:33;;;;;;;32.03;17.67;;;2.70;99.90;;;;;;4257755;27;20298;-56
2022/04/22 03:03:35;;;;;;;37.07;17.47;;;2.70;99.90;;;;;;4258332;27;20274;-58
2022/04/22 03:05:36;;;;;;;31.83;15.80;;;2.60;99.90;;;;;;4259021;27;20324;-59
2022/04/22 03:07:38;;;;;;;26.63;14.83;;;2.60;99.90;;;;;;4257945;27;20259;-55
2022/04/22 03:09:39;;;;;;;25.20;15.30;;;2.50;99.90;;;;;;4259357;27;20322;-58
2022/04/22 03:11:40;;;;;;;24.77;14.90;;;2.50;99.90;;;;;;4257276;27;20259;-56
2022/04/22 03:13:41;;;;;;;30.40;16.07;;;2.50;99.90;;;;;;4258943;27;20315;-58
2022/04/22 03:15:42;;;;;;;28.30;15.63;;;2.40;99.90;;;;;;4257714;27;20263;-57
2022/04/22 03:17:44;;;;;;;30.97;17.07;;;2.40;99.90;;;;;;4259042;27;20267;-61
2022/04/22 03:19:45;;;;;;;27.57;16.17;;;2.40;99.90;;;;;;4258213;27;20254;-58
2022/04/22 03:21:46;;;;;;;29.00;16.43;;;2.40;99.90;;;;;;4259291;27;20278;-59
2022/04/22 03:23:47;;;;;;;33.33;16.57;;;2.30;99.90;;;;;;4257743;27;20271;-56
2022/04/22 03:25:49;;;;;;;30.27;16.27;;;2.30;99.90;;;;;;4259429;27;20262;-59
2022/04/22 03:27:51;;;;;;;30.63;16.30;;;2.30;99.90;;;;;;4258623;27;20243;-56
2022/04/22 03:29:52;;;;;;;30.40;17.13;;;2.20;99.90;;;;;;4257970;27;20754;-56
2022/04/22 03:31:54;;;;;;;36.90;17.77;;;2.20;99.90;;;;;;4258747;27;20319;-57
2022/04/22 03:33:56;;;;;;;31.00;17.77;;;2.20;99.90;;;;;;4258275;27;20331;-61
2022/04/22 03:35:57;;;;;;;32.40;16.80;;;2.20;99.90;;;;;;4258792;27;20311;-55
2022/04/22 03:37:59;;;;;;;32.50;18.07;;;2.20;99.90;;;;;;4258011;27;20258;-66
2022/04/22 03:40:00;;;;;;;31.10;17.13;;;2.30;99.90;;;;;;4258991;27;20338;-58
2022/04/22 03:42:01;;;;;;;32.23;17.33;;;2.30;99.90;;;;;;4257162;27;20302;-55
2022/04/22 03:44:02;;;;;;;34.53;17.10;;;2.40;99.90;;;;;;4258324;27;20267;-67
2022/04/22 03:46:04;;;;;;;34.00;18.43;;;2.50;99.90;;;;;;4257772;27;21055;-57
2022/04/22 03:48:06;;;;;;;29.40;17.43;;;2.50;99.90;;;;;;4256980;27;20304;-59
2022/04/22 03:50:08;;;;;;;33.20;17.90;;;2.60;99.90;;;;;;4245372;27;20323;-58
2022/04/22 03:52:09;;;;;;;31.97;17.23;;;2.60;99.90;;;;;;4226250;27;20408;-60
2022/04/22 03:54:10;;;;;;;39.13;19.10;;;2.60;99.90;;;;;;4251537;27;20339;-67
2022/04/22 03:58:31;;;;;;;37.73;19.80;;;2.50;99.90;;;;;;4265126;27;20300;-66
2022/04/22 04:00:32;;;;;;;44.93;21.30;;;2.40;99.90;;;;;;4259154;27;20287;-61
2022/04/22 04:02:34;;;;;;;31.73;18.83;;;2.30;99.90;;;;;;4263399;27;20294;-67
2022/04/22 04:04:35;;;;;;;37.73;18.50;;;2.40;99.90;;;;;;4261564;27;20278;-56
2022/04/22 04:06:37;;;;;;;33.27;18.67;;;2.40;99.90;;;;;;4257692;27;21028;-54
2022/04/22 04:08:38;;;;;;;43.77;19.70;;;2.50;99.90;;;;;;4257248;27;20275;-71
2022/04/22 04:16:04;;;;;;;42.30;21.67;;;2.50;99.90;;;;;;4247261;27;20088;-52
2022/04/22 04:17:41;;;;;;;46.27;22.70;;;2.40;99.90;;;;;;4227086;27;20268;-56
2022/04/22 04:24:22;;;;;;;48.17;22.40;;;2.10;99.90;;;;;;4240719;27;20657;-54
2022/04/22 04:26:24;;;;;;;46.23;23.77;;;2.00;99.90;;;;;;4248562;27;20740;-56
2022/04/22 04:28:28;;;;;;;42.30;22.37;;;2.00;99.90;;;;;;4252354;27;20266;-57
2022/04/22 04:30:30;;;;;;;46.83;22.70;;;2.00;99.90;;;;;;4260510;27;20340;-57
2022/04/22 04:32:31;;;;;;;47.67;24.57;;;2.00;99.90;;;;;;4242370;27;20312;-57
2022/04/22 04:34:32;;;;;;;42.90;21.67;;;2.00;99.90;;;;;;4256503;27;20320;-61
2022/04/22 04:36:34;;;;;;;42.47;22.77;;;2.00;99.90;;;;;;4257238;27;20327;-63
2022/04/22 04:38:37;;;;;;;46.10;23.00;;;2.00;99.90;;;;;;4257485;27;20324;-56
2022/04/22 04:40:38;;;;;;;45.20;23.67;;;2.10;99.90;;;;;;4267284;27;20266;-53
2022/04/22 04:42:41;;;;;;;46.27;24.43;;;2.10;99.90;;;;;;4256318;27;20717;-54
2022/04/22 04:44:42;;;;;;;46.77;22.73;;;2.10;99.90;;;;;;4256959;27;20615;-64
2022/04/22 04:46:43;;;;;;;48.77;24.80;;;2.20;99.90;;;;;;4256499;27;20801;-58
2022/04/22 04:48:44;;;;;;;47.57;24.10;;;2.30;99.90;;;;;;4257804;27;20330;-57
2022/04/22 04:50:46;;;;;;;44.67;23.43;;;2.40;99.90;;;;;;4256961;27;20290;-53
2022/04/22 04:52:47;;;;;;;44.40;23.43;;;2.50;99.90;;;;;;4257826;27;20733;-58
2022/04/22 04:54:50;;;;;;;44.53;23.57;;;2.60;99.90;;;;;;4256167;27;20286;-60
2022/04/22 04:56:51;;;;;;;48.47;24.00;;;2.60;99.90;;;;;;4257888;27;20779;-56
2022/04/22 04:58:52;;;;;;;45.47;24.10;;;2.60;99.90;;;;;;4255478;27;20779;-61
2022/04/22 05:00:54;;;;;;;43.50;21.90;;;2.60;99.90;;;;;;4256932;27;21141;-59
2022/04/22 05:02:55;;;;;;;37.20;22.50;;;2.70;99.90;;;;;;4256652;27;20328;-58
2022/04/22 05:04:56;;;;;;;39.30;21.17;;;2.70;99.90;;;;;;4257430;27;20307;-54
2022/04/22 05:06:57;;;;;;;43.43;22.77;;;2.80;99.90;;;;;;4257468;27;20254;-60
2022/04/22 05:08:58;;;;;;;50.37;22.77;;;2.70;99.90;;;;;;4256760;27;20331;-58
2022/04/22 05:10:59;;;;;;;41.20;22.77;;;2.80;99.90;;;;;;4257487;27;20255;-65
2022/04/22 05:13:01;;;;;;;38.13;22.13;;;2.80;99.90;;;;;;4256449;27;20312;-60
2022/04/22 05:15:03;;;;;;;47.40;24.67;;;2.70;99.90;;;;;;4269195;27;20322;-64
2022/04/22 05:17:04;;;;;;;45.30;24.60;;;2.70;99.90;;;;;;4273487;27;20322;-56
2022/04/22 05:19:05;;;;;;;43.10;23.13;;;2.80;99.90;;;;;;4274951;27;20782;-59
2022/04/22 05:21:07;;;;;;;40.67;23.73;;;2.90;99.90;;;;;;4273427;27;20330;-59
2022/04/22 05:23:08;;;;;;;44.80;23.37;;;3.00;99.90;;;;;;4274373;27;20702;-59
2022/04/22 05:25:11;;;;;;;43.53;23.87;;;3.00;99.90;;;;;;4275989;27;21111;-58
2022/04/22 05:27:12;;;;;;;45.33;25.03;;;3.10;99.90;;;;;;4278578;27;20289;-56
2022/04/22 05:33:53;;;;;;;59.33;27.60;;;3.10;99.90;;;;;;4277275;27;20507;-57
2022/04/22 05:35:54;;;;;;;46.47;25.80;;;3.10;99.90;;;;;;4277522;27;20732;-57
2022/04/22 05:37:58;;;;;;;48.30;22.20;;;3.10;99.90;;;;;;4275685;27;20353;-57
2022/04/22 05:39:59;;;;;;;37.80;20.07;;;3.10;99.90;;;;;;4277220;27;21034;-63
2022/04/22 05:42:01;;;;;;;40.73;22.57;;;3.00;99.90;;;;;;4276446;27;20290;-56
2022/04/22 05:44:04;;;;;;;37.27;20.50;;;3.00;99.90;;;;;;4276815;27;20274;-58
2022/04/22 05:46:05;;;;;;;31.20;19.83;;;3.00;99.90;;;;;;4275773;27;20242;-56
2022/04/22 05:48:07;;;;;;;38.57;21.40;;;3.10;99.90;;;;;;4276091;27;20326;-59
2022/04/22 05:50:12;;;;;;;35.73;20.57;;;3.20;99.90;;;;;;4277004;27;20318;-63
2022/04/22 05:52:14;;;;;;;35.13;20.73;;;3.20;99.90;;;;;;4276694;27;20262;-58
2022/04/22 05:54:15;;;;;;;36.03;21.20;;;3.30;99.90;;;;;;4277067;27;20290;-54
2022/04/22 05:56:16;;;;;;;36.13;20.17;;;3.30;99.90;;;;;;4275261;27;20262;-59
2022/04/22 05:58:17;;;;;;;37.37;20.93;;;3.40;99.90;;;;;;4277667;27;20254;-61
2022/04/22 06:00:20;;;;;;;36.33;20.40;;;3.40;99.90;;;;;;4275749;27;20322;-58
2022/04/22 06:02:21;;;;;;;34.70;19.73;;;3.40;99.90;;;;;;4276757;27;20359;-64
2022/04/22 06:04:22;;;;;;;33.67;19.83;;;3.50;99.90;;;;;;4276269;27;20326;-58
2022/04/22 06:06:24;;;;;;;40.43;21.03;;;3.60;99.90;;;;;;4277786;27;20717;-59
2022/04/22 06:10:44;;;;;;;35.13;19.77;;;3.70;99.90;;;;;;4277868;27;20322;-63
2022/04/22 06:12:45;;;;;;;34.37;19.50;;;3.90;99.90;;;;;;4276244;27;21110;-58
2022/04/22 06:14:46;;;;;;;33.03;18.87;;;4.00;99.90;;;;;;4277876;27;20273;-58
2022/04/22 06:16:47;;;;;;;34.27;21.83;;;4.10;99.90;;;;;;4274718;27;20282;-55
2022/04/22 06:18:49;;;;;;;33.00;18.00;;;4.20;99.90;;;;;;4275845;27;20374;-59
2022/04/22 06:20:51;;;;;;;30.53;19.50;;;4.30;99.90;;;;;;4276448;27;21204;-57
2022/04/22 06:22:52;;;;;;;30.90;17.60;;;4.40;99.90;;;;;;4257038;27;20299;-60
2022/04/22 06:24:55;;;;;;;29.17;18.57;;;4.40;99.90;;;;;;4274777;27;20266;-56
2022/04/22 06:26:56;;;;;;;31.43;18.63;;;4.50;99.90;;;;;;4274549;27;20266;-68
2022/04/22 06:28:57;;;;;;;31.77;16.90;;;4.50;99.90;;;;;;4276034;27;20334;-61
2022/04/22 06:30:58;;;;;;;32.57;18.43;;;4.60;99.90;;;;;;4275958;27;20266;-59
2022/04/22 06:33:03;;;;;;;29.53;18.37;;;4.60;99.90;;;;;;4276907;27;20262;-58
2022/04/22 06:35:06;;;;;;;32.07;17.73;;;4.60;99.90;;;;;;4274687;27;20761;-63
2022/04/22 06:37:09;;;;;;;31.43;18.47;;;4.70;99.90;;;;;;4276945;27;20322;-62
2022/04/22 06:39:10;;;;;;;31.57;19.13;;;4.70;99.90;;;;;;4274292;27;20354;-60
2022/04/22 06:45:53;;;;;;;29.77;18.17;;;4.90;99.90;;;;;;4276620;27;20079;-69
2022/04/22 06:47:54;;;;;;;38.17;17.93;;;5.00;99.90;;;;;;4258963;27;20834;-72
2022/04/22 06:49:56;;;;;;;31.00;17.97;;;5.00;99.90;;;;;;4259002;27;20405;-65
2022/04/22 06:51:57;;;;;;;33.73;18.97;;;5.10;99.90;;;;;;4257339;27;20263;-66
2022/04/22 06:53:58;;;;;;;32.10;19.47;;;5.10;99.90;;;;;;4259480;27;20782;-60
2022/04/22 06:56:02;;;;;;;34.47;19.23;;;5.20;99.90;;;;;;4258047;27;20331;-63
2022/04/22 06:58:07;;;;;;;31.10;17.50;;;5.20;99.90;;;;;;4258467;27;20279;-57
2022/04/22 07:00:10;;;;;;;29.40;17.67;;;5.30;99.90;;;;;;4257456;27;20275;-66
2022/04/22 07:02:12;;;;;;;31.67;18.07;;;5.30;99.90;;;;;;4239553;27;20315;-61
2022/04/22 07:04:13;;;;;;;27.57;16.13;;;5.40;99.90;;;;;;4258178;27;20909;-58
2022/04/22 07:06:15;;;;;;;35.23;17.47;;;5.40;99.90;;;;;;4258570;27;20270;-58
2022/04/22 07:08:18;;;;;;;34.40;18.53;;;5.40;99.90;;;;;;4222325;28;20280;-55
2022/04/22 07:10:20;;;;;;;33.53;18.87;;;5.50;99.90;;;;;;4254243;27;20275;-59
2022/04/22 07:12:27;;;;;;;31.77;18.57;;;5.50;99.90;;;;;;4258977;27;20271;-57
2022/04/22 07:14:29;;;;;;;32.27;18.30;;;5.60;99.90;;;;;;4257257;27;20993;-56
2022/04/22 07:16:32;;;;;;;33.60;18.47;;;5.60;99.90;;;;;;4258238;27;20673;-59
2022/04/22 07:18:33;;;;;;;29.27;17.87;;;5.70;99.90;;;;;;4257492;27;20271;-59
2022/04/22 07:20:35;;;;;;;36.17;19.40;;;5.80;99.90;;;;;;4259039;27;20259;-63
2022/04/22 07:22:40;;;;;;;33.60;18.57;;;5.80;99.90;;;;;;4257042;27;20299;-59
2022/04/22 07:24:42;;;;;;;32.30;18.40;;;5.90;99.90;;;;;;4259113;27;20275;-56
2022/04/22 07:26:44;;;;;;;30.33;17.27;;;5.90;99.90;;;;;;4261503;27;21077;-56
2022/04/22 07:28:49;;;;;;;35.17;19.03;;;5.90;99.90;;;;;;4267408;27;20341;-55
2022/04/22 07:30:51;;;;;;;28.67;17.47;;;5.90;99.90;;;;;;4257909;27;20642;-74
2022/04/22 07:32:52;;;;;;;31.27;18.70;;;5.90;99.90;;;;;;4264924;27;20271;-59
2022/04/22 07:34:54;;;;;;;32.47;18.27;;;6.00;99.90;;;;;;4249768;27;20284;-60
2022/04/22 07:36:57;;;;;;;31.87;18.00;;;6.00;99.90;;;;;;4248174;27;20314;-60
2022/04/22 07:38:58;;;;;;;31.43;18.93;;;6.00;99.90;;;;;;4240982;27;20758;-59
2022/04/22 07:40:59;;;;;;;39.33;17.53;;;6.10;99.90;;;;;;4253966;27;20286;-64
2022/04/22 07:47:42;;;;;;;31.40;18.23;;;6.10;99.90;;;;;;4260240;27;20117;-57
2022/04/22 07:49:43;;;;;;;31.70;18.17;;;6.10;99.90;;;;;;4261457;27;20343;-56
2022/04/22 07:51:44;;;;;;;32.00;18.37;;;6.20;99.90;;;;;;4263363;27;20338;-55
2022/04/22 07:53:46;;;;;;;32.63;18.77;;;6.20;99.90;;;;;;4259555;27;20300;-62
2022/04/22 07:55:48;;;;;;;33.50;18.47;;;6.20;99.90;;;;;;4257534;27;20672;-58
2022/04/22 07:57:49;;;;;;;36.13;19.20;;;6.20;99.90;;;;;;4256426;27;20262;-59
2022/04/22 07:59:50;;;;;;;28.93;17.53;;;6.20;99.90;;;;;;4254157;27;20266;-62
2022/04/22 08:01:51;;;;;;;36.57;20.33;;;6.20;99.90;;;;;;4256842;27;20806;-59
2022/04/22 08:03:55;;;;;;;34.60;19.63;;;6.20;99.90;;;;;;4243751;27;20319;-57
2022/04/22 08:05:57;;;;;;;35.43;20.50;;;6.20;99.90;;;;;;4263205;27;20354;-58
2022/04/22 08:07:58;;;;;;;40.60;22.57;;;6.20;99.90;;;;;;4263579;27;20277;-64
2022/04/22 08:09:59;;;;;;;45.53;22.27;;;6.20;99.90;;;;;;4258372;27;20271;-65
2022/04/22 08:12:00;;;;;;;38.70;21.87;;;6.20;99.90;;;;;;4264839;27;20408;-64
2022/04/22 08:14:01;;;;;;;38.07;21.00;;;6.20;99.90;;;;;;4257511;27;20335;-67
2022/04/22 08:16:03;;;;;;;33.13;20.47;;;6.30;99.90;;;;;;4265285;27;20031;-54
2022/04/22 08:18:04;;;;;;;38.70;19.07;;;6.30;99.90;;;;;;4253574;27;20270;-66
2022/04/22 08:20:07;;;;;;;32.63;17.13;;;6.40;99.90;;;;;;4248822;27;20031;-57
2022/04/22 08:22:08;;;;;;;34.03;17.63;;;6.40;99.90;;;;;;4239568;27;20843;-58
2022/04/22 08:24:10;;;;;;;32.70;18.20;;;6.50;99.90;;;;;;4240332;27;20279;-65
2022/04/22 08:26:12;;;;;;;34.20;17.77;;;6.50;99.90;;;;;;4239228;27;20092;-66
2022/04/22 08:28:13;;;;;;;29.70;16.73;;;6.60;99.90;;;;;;4241582;27;20340;-71
2022/04/22 08:30:14;;;;;;;26.30;15.67;;;6.60;99.90;;;;;;4260209;27;20273;-64
2022/04/22 08:32:15;;;;;;;32.17;15.40;;;6.60;99.90;;;;;;4260034;27;20330;-73
2022/04/22 08:34:16;;;;;;;25.03;15.70;;;6.60;99.90;;;;;;4264643;27;20347;-60
2022/04/22 08:36:18;;;;;;;28.07;14.50;;;6.60;99.90;;;;;;4259323;27;20326;-65
2022/04/22 08:38:20;;;;;;;25.43;14.97;;;6.60;99.90;;;;;;4262017;27;20833;-59
2022/04/22 08:40:22;;;;;;;26.77;15.20;;;6.60;99.90;;;;;;4259768;27;20885;-64
2022/04/22 08:42:24;;;;;;;25.17;15.83;;;6.70;99.90;;;;;;4260881;27;20655;-61
2022/04/22 08:44:27;;;;;;;28.27;16.27;;;6.70;99.90;;;;;;4250375;27;20344;-62
2022/04/22 08:51:08;;;;;;;29.37;14.23;;;6.80;99.90;;;;;;4257561;27;20075;-58
2022/04/22 08:53:17;;;;;;;21.00;13.83;;;6.80;99.90;;;;;;4258404;27;20038;-55
2022/04/22 08:55:19;;;;;;;26.80;15.03;;;6.90;99.90;;;;;;4238292;27;20478;-63
2022/04/22 08:57:22;;;;;;;23.43;14.77;;;6.90;99.90;;;;;;4257475;27;20043;-66
2022/04/22 08:59:25;;;;;;;27.23;15.33;;;7.00;99.90;;;;;;4264500;27;20035;-61
2022/04/22 09:01:26;;;;;;;26.83;16.43;;;7.00;99.90;;;;;;4257690;27;20047;-65
2022/04/22 09:03:29;;;;;;;27.60;15.73;;;7.00;99.90;;;;;;4262452;27;20095;-61
2022/04/22 09:05:31;;;;;;;29.13;15.87;;;7.00;99.90;;;;;;4243963;27;20035;-61
2022/04/22 09:07:33;;;;;;;28.50;16.13;;;7.00;99.90;;;;;;4260145;27;20043;-63
2022/04/22 09:09:34;;;;;;;23.83;15.27;;;7.10;99.90;;;;;;4260956;27;20416;-60
2022/04/22 09:11:41;;;;;;;22.83;15.17;;;7.10;99.90;;;;;;4258494;27;20041;-56
2022/04/22 09:13:42;;;;;;;22.60;15.33;;;7.20;99.90;;;;;;4262146;27;20038;-59
2022/04/22 09:15:44;;;;;;;22.93;14.33;;;7.10;99.90;;;;;;4259431;27;20086;-61
2022/04/22 09:17:46;;;;;;;33.87;14.97;;;7.20;99.90;;;;;;4263509;27;20030;-60
2022/04/22 09:19:47;;;;;;;24.40;14.63;;;7.20;99.90;;;;;;4256367;27;20387;-58
2022/04/22 09:21:56;;;;;;;23.67;14.93;;;7.30;99.90;;;;;;4263642;27;20079;-59
2022/04/22 09:24:11;;;;;;;34.03;15.77;;;7.40;99.90;;;;;;4263073;27;20051;-56
2022/04/22 09:26:39;;;;;;;26.10;14.30;;;7.40;99.90;;;;;;4260077;27;20043;-57
2022/04/22 09:28:40;;;;;;;26.73;16.07;;;7.50;99.90;;;;;;4252069;27;20795;-59
2022/04/22 09:30:42;;;;;;;26.53;15.17;;;7.50;99.90;;;;;;4260549;27;20485;-57
2022/04/22 09:32:44;;;;;;;28.10;15.90;;;7.60;99.90;;;;;;4258363;27;20029;-58
2022/04/22 09:34:45;;;;;;;27.87;15.80;;;7.70;99.90;;;;;;4256972;27;20954;-55
2022/04/22 09:43:57;;;;;;;24.20;15.18;;;7.90;99.90;;;;;;4261589;27;20076;-56
2022/04/22 09:45:58;;;;;;;31.07;15.60;;;8.00;99.90;;;;;;4260671;27;20431;-61
2022/04/22 09:48:00;;;;;;;22.57;14.83;;;8.20;99.90;;;;;;4257523;27;20050;-58
2022/04/22 09:50:10;;;;;;;30.70;16.07;;;8.40;99.90;;;;;;4253572;27;20046;-63
2022/04/22 09:52:11;;;;;;;24.40;14.73;;;8.70;99.90;;;;;;4263925;27;20475;-60
2022/04/22 09:54:15;;;;;;;22.87;14.50;;;8.90;99.90;;;;;;4258756;27;20046;-57
2022/04/22 09:56:17;;;;;;;22.10;15.17;;;8.90;99.90;;;;;;4258322;27;20038;-62
2022/04/22 09:58:23;;;;;;;21.93;13.17;;;9.00;99.90;;;;;;4271445;27;20039;-59
2022/04/22 10:00:30;;;;;;;21.10;13.57;;;9.10;99.90;;;;;;4267640;27;20309;-60
2022/04/22 10:02:31;;;;;;;21.27;13.80;;;9.20;99.90;;;;;;4249355;27;20023;-61
2022/04/22 10:04:33;;;;;;;30.77;13.47;;;9.30;99.90;;;;;;4249757;27;20031;-65
2022/04/22 10:06:34;;;;;;;21.90;13.10;;;9.40;99.90;;;;;;4250785;27;20084;-66
2022/04/22 10:08:36;;;;;;;17.77;11.27;;;9.50;99.90;;;;;;4244394;27;20495;-59
2022/04/22 10:10:42;;;;;;;16.43;11.60;;;9.60;99.90;;;;;;4251602;27;20084;-62
2022/04/22 10:12:43;;;;;;;15.63;10.73;;;9.50;99.90;;;;;;4254200;27;20813;-62
2022/04/22 10:14:45;;;;;;;14.00;9.90;;;9.70;99.90;;;;;;4261208;27;20043;-59
2022/04/22 10:16:49;;;;;;;17.47;11.17;;;9.90;99.90;;;;;;4258615;27;20111;-65
2022/04/22 10:18:51;;;;;;;20.20;10.83;;;9.90;99.90;;;;;;4259144;27;20482;-57
2022/04/22 10:20:53;;;;;;;13.77;8.60;;;10.00;99.90;;;;;;4259125;27;20075;-59
2022/04/22 10:22:55;;;;;;;12.43;9.60;;;10.10;99.90;;;;;;4248723;27;20043;-63
2022/04/22 10:24:58;;;;;;;14.43;9.47;;;10.20;99.90;;;;;;4243763;27;20047;-59
2022/04/22 10:27:07;;;;;;;13.53;9.73;;;10.10;99.90;;;;;;4242137;27;20113;-61
2022/04/22 10:29:09;;;;;;;13.10;9.83;;;10.20;99.90;;;;;;4240825;27;20464;-57
2022/04/22 10:31:11;;;;;;;16.93;11.23;;;10.20;99.90;;;;;;4242894;27;20725;-59
2022/04/22 10:33:12;;;;;;;15.33;11.00;;;10.30;99.90;;;;;;4240549;27;20138;-60
2022/04/22 10:35:14;;;;;;;16.17;10.90;;;10.50;99.90;;;;;;4263375;27;20111;-59
2022/04/22 10:37:38;;;;;;;14.90;10.20;;;10.40;99.90;;;;;;4245729;27;20043;-59
2022/04/22 10:39:39;;;;;;;15.00;9.73;;;10.60;99.90;;;;;;4255690;27;20482;-62
2022/04/22 10:41:50;;;;;;;17.37;8.47;;;10.80;99.90;;;;;;4264834;27;20042;-60
2022/04/22 10:49:15;;;;;;;13.67;9.93;;;11.10;99.90;;;;;;4194608;28;20102;-57
2022/04/22 10:51:16;;;;;;;15.60;9.63;;;11.30;99.90;;;;;;4189168;28;20074;-55
2022/04/22 10:53:26;;;;;;;13.20;8.60;;;11.50;99.90;;;;;;4195410;27;20028;-56
2022/04/22 10:55:49;;;;;;;10.53;7.73;;;11.60;99.90;;;;;;4271750;27;20039;-58
2022/04/22 10:58:13;;;;;;;13.67;8.70;;;11.70;99.90;;;;;;4274721;27;20439;-54
2022/04/22 11:00:14;;;;;;;9.60;7.53;;;12.00;99.90;;;;;;4275432;27;20561;-66
2022/04/22 11:02:29;;;;;;;9.40;7.13;;;11.90;99.90;;;;;;4274678;27;20102;-60
2022/04/22 11:04:31;;;;;;;12.97;7.03;;;12.00;99.90;;;;;;4275487;27;20050;-65
2022/04/22 11:06:36;;;;;;;8.77;7.30;;;12.10;99.90;;;;;;4275933;27;20036;-63
2022/04/22 11:08:39;;;;;;;8.43;6.53;;;12.00;99.90;;;;;;4274961;27;21089;-60
2022/04/22 11:10:46;;;;;;;10.73;7.50;;;12.10;99.90;;;;;;4275414;27;20373;-55
2022/04/22 11:12:55;;;;;;;13.30;6.70;;;12.30;99.90;;;;;;4274722;27;20644;-58
2022/04/22 11:14:56;;;;;;;13.50;6.90;;;12.40;99.90;;;;;;4275614;27;20054;-60
2022/04/22 11:17:33;;;;;;;11.10;7.40;;;12.40;99.90;;;;;;4273926;27;20094;-59
2022/04/22 11:19:36;;;;;;;13.03;7.17;;;12.60;99.90;;;;;;4274595;27;20050;-61
2022/04/22 11:21:37;;;;;;;11.37;7.30;;;12.70;99.90;;;;;;4275415;27;20026;-58
2022/04/22 11:23:40;;;;;;;12.40;8.07;;;12.90;99.90;;;;;;4275332;27;20046;-62
2022/04/22 11:25:43;;;;;;;10.13;7.50;;;13.00;99.90;;;;;;4272180;27;20837;-70
2022/04/22 11:27:45;;;;;;;16.47;7.93;;;13.10;99.90;;;;;;4274498;27;20098;-59
2022/04/22 11:29:46;;;;;;;12.13;7.80;;;13.20;99.20;;;;;;4274303;27;20071;-55
2022/04/22 11:31:56;;;;;;;12.60;7.47;;;13.10;99.40;;;;;;4268959;27;20431;-61